createdAt,value
2023-10-02T00:04:38.272Z,9.40
2023-10-02T00:11:38.001Z,8.48
2023-10-02T00:18:20.428Z,8.77
2023-10-02T00:25:08.908Z,8.82
2023-10-02T00:31:52.035Z,8.57
2023-10-02T00:38:34.322Z,8.88
2023-10-02T00:45:18.184Z,8.30
2023-10-02T00:52:01.257Z,8.55
2023-10-02T00:58:45.028Z,8.70
2023-10-02T01:05:42.434Z,8.95
2023-10-02T01:12:39.024Z,8.80
2023-10-02T01:19:25.582Z,8.73
2023-10-02T01:26:08.259Z,8.13
2023-10-02T01:33:15.125Z,8.20
2023-10-02T01:40:17.352Z,9.00
2023-10-02T01:46:59.656Z,7.80
2023-10-02T01:53:43.068Z,9.02
2023-10-02T02:00:25.248Z,8.48
2023-10-02T02:07:09.309Z,9.02
2023-10-02T02:13:56.314Z,8.20
2023-10-02T02:20:45.007Z,8.85
2023-10-02T02:27:28.062Z,8.32
2023-10-02T02:34:21.373Z,8.48
2023-10-02T02:41:07.657Z,8.88
2023-10-02T02:47:51.950Z,8.75
2023-10-02T02:54:34.930Z,9.18
2023-10-02T03:01:25.429Z,9.02
2023-10-02T03:08:13.433Z,8.70
2023-10-02T03:14:56.630Z,9.20
2023-10-02T03:21:48.664Z,9.38
2023-10-02T03:28:35.608Z,9.38
2023-10-02T03:35:19.263Z,9.48
2023-10-02T03:42:02.669Z,8.82
2023-10-02T03:48:51.672Z,8.57
2023-10-02T03:55:34.196Z,8.77
2023-10-02T04:02:26.302Z,9.05
2023-10-02T04:09:18.329Z,8.63
2023-10-02T04:16:19.463Z,8.52
2023-10-02T04:23:19.603Z,8.50
2023-10-02T04:30:13.916Z,9.98
2023-10-02T04:36:56.267Z,9.15
2023-10-02T04:43:38.569Z,11.45
2023-10-02T04:50:23.982Z,9.82
2023-10-02T04:57:15.463Z,11.35
2023-10-02T05:04:07.321Z,9.95
2023-10-02T05:10:57.411Z,10.25
2023-10-02T05:17:47.930Z,9.43
2023-10-02T05:24:32.641Z,9.52
2023-10-02T05:31:16.423Z,10.57
2023-10-02T05:37:58.712Z,9.68
2023-10-02T05:44:45.237Z,11.05
2023-10-02T05:51:45.837Z,10.13
2023-10-02T05:58:28.302Z,9.50
2023-10-02T06:05:12.529Z,10.30
2023-10-02T06:12:00.437Z,10.13
2023-10-02T06:18:43.452Z,10.30
2023-10-02T06:25:25.895Z,9.43
2023-10-02T06:32:12.218Z,8.90
2023-10-02T06:38:55.547Z,9.18
2023-10-02T06:45:52.992Z,10.18
2023-10-02T06:52:35.310Z,9.85
2023-10-02T06:59:17.664Z,10.50
2023-10-02T07:06:01.123Z,9.45
2023-10-02T07:12:43.925Z,8.95
2023-10-02T07:19:39.037Z,10.38
2023-10-02T07:26:21.558Z,9.43
2023-10-02T07:33:05.005Z,9.52
2023-10-02T07:40:02.075Z,10.20
2023-10-02T07:46:45.063Z,10.02
2023-10-02T07:53:40.333Z,10.02
2023-10-02T08:00:38.464Z,10.57
2023-10-02T08:07:43.001Z,9.52
2023-10-02T08:14:43.955Z,11.13
2023-10-02T08:21:37.986Z,10.05
2023-10-02T08:28:24.109Z,10.73
2023-10-02T08:35:14.717Z,10.32
2023-10-02T08:41:59.880Z,10.32
2023-10-02T08:48:43.957Z,10.65
2023-10-02T08:55:36.712Z,11.52
2023-10-02T09:02:19.062Z,11.60
2023-10-02T09:09:17.912Z,10.32
2023-10-02T09:16:11.301Z,10.90
2023-10-02T09:23:08.705Z,10.82
2023-10-02T09:30:11.066Z,12.10
2023-10-02T09:37:20.744Z,12.27
2023-10-02T09:43:55.886Z,12.77
2023-10-02T09:50:47.291Z,12.05
2023-10-02T09:57:34.777Z,12.27
2023-10-02T10:04:32.792Z,13.05
2023-10-02T10:11:19.321Z,12.48
2023-10-02T10:18:03.901Z,12.30
2023-10-02T10:25:10.651Z,12.10
2023-10-02T10:31:56.516Z,12.43
2023-10-02T10:38:42.330Z,11.35
2023-10-02T10:45:24.887Z,12.20
2023-10-02T10:52:25.071Z,11.95
2023-10-02T10:59:14.102Z,12.68
2023-10-02T11:06:04.968Z,14.48
2023-10-02T11:12:58.941Z,14.88
2023-10-02T11:19:47.052Z,14.70
2023-10-02T11:26:29.966Z,16.38
2023-10-02T11:33:13.501Z,13.38
2023-10-02T11:39:57.242Z,14.98
2023-10-02T11:46:49.116Z,15.40
2023-10-02T11:53:31.453Z,18.10
2023-10-02T12:00:14.229Z,19.50
2023-10-02T12:06:57.325Z,19.52
2023-10-02T12:13:39.853Z,17.92
2023-10-02T12:20:23.610Z,17.20
2023-10-02T12:27:11.209Z,18.75
2023-10-02T12:33:53.729Z,18.67
2023-10-02T12:40:36.143Z,18.20
2023-10-02T12:47:19.011Z,19.30
2023-10-02T12:54:02.711Z,17.55
2023-10-02T13:00:45.852Z,17.52
2023-10-02T13:07:29.340Z,19.70
2023-10-02T13:14:19.990Z,18.63
2023-10-02T13:21:10.654Z,19.42
2023-10-02T13:27:53.073Z,20.92
2023-10-02T13:34:35.349Z,20.73
2023-10-02T13:41:18.250Z,21.13
2023-10-02T13:48:00.610Z,19.60
2023-10-02T13:54:43.099Z,19.75
2023-10-02T14:01:26.294Z,18.98
2023-10-02T14:08:08.805Z,19.90
2023-10-02T14:14:53.523Z,20.08
2023-10-02T14:21:35.875Z,17.15
2023-10-02T14:28:18.185Z,18.17
2023-10-02T14:35:00.476Z,17.33
2023-10-02T14:41:43.958Z,18.48
2023-10-02T14:48:45.217Z,17.90
2023-10-02T14:55:29.310Z,16.45
2023-10-02T15:02:11.745Z,16.90
2023-10-02T15:09:03.587Z,16.55
2023-10-02T15:15:46.046Z,16.90
2023-10-02T15:22:32.991Z,17.65
2023-10-02T15:29:15.944Z,17.02
2023-10-02T15:35:58.337Z,18.15
2023-10-02T15:42:44.076Z,16.92
2023-10-02T15:49:27.246Z,17.73
2023-10-02T15:56:14.016Z,18.50
2023-10-02T16:03:04.139Z,17.63
2023-10-02T16:09:46.565Z,17.42
2023-10-02T16:16:29.039Z,17.65
2023-10-02T16:23:11.391Z,18.05
2023-10-02T16:29:53.694Z,20.92
2023-10-02T16:36:35.875Z,22.52
2023-10-02T16:43:18.146Z,24.13
2023-10-02T16:50:01.951Z,27.10
2023-10-02T16:56:44.799Z,34.92
2023-10-02T17:03:27.891Z,22.83
2023-10-02T17:10:20.746Z,21.77
2023-10-02T17:17:03.176Z,23.55
2023-10-02T17:23:45.729Z,20.48
2023-10-02T17:30:28.908Z,18.10
2023-10-02T17:37:11.173Z,19.70
2023-10-02T17:43:54.084Z,20.90
2023-10-02T17:50:36.465Z,20.90
2023-10-02T17:57:18.800Z,20.50
2023-10-02T18:04:01.221Z,22.20
2023-10-02T18:10:49.420Z,35.35
2023-10-02T18:17:32.425Z,24.73
2023-10-02T18:24:15.568Z,23.77
2023-10-02T18:30:58.240Z,23.67
2023-10-02T18:37:43.420Z,22.05
2023-10-02T18:44:26.245Z,23.13
2023-10-02T18:51:27.382Z,22.92
2023-10-02T18:58:12.636Z,23.20
2023-10-02T19:04:56.361Z,21.65
2023-10-02T19:11:39.216Z,22.13
2023-10-02T19:18:21.700Z,20.83
2023-10-02T19:25:04.302Z,20.67
2023-10-02T19:31:48.615Z,21.23
2023-10-02T19:38:32.245Z,21.33
2023-10-02T19:45:14.761Z,19.77
2023-10-02T19:51:59.874Z,22.70
2023-10-02T19:58:44.735Z,23.48
2023-10-02T20:05:30.561Z,23.70
2023-10-02T20:12:14.026Z,23.02
2023-10-02T20:18:56.278Z,25.33
2023-10-02T20:25:39.070Z,25.92
2023-10-02T20:32:26.563Z,24.92
2023-10-02T20:39:16.347Z,24.95
2023-10-02T20:46:02.744Z,25.08
2023-10-02T20:52:47.096Z,23.75
2023-10-02T20:59:30.786Z,24.25
2023-10-02T21:06:14.050Z,26.30
2023-10-02T21:12:56.508Z,25.23
2023-10-02T21:19:48.163Z,25.17
2023-10-02T21:26:31.708Z,28.20
2023-10-02T21:33:14.534Z,26.85
2023-10-02T21:39:58.237Z,25.08
2023-10-02T21:46:40.638Z,25.52
2023-10-02T21:53:23.061Z,24.85
2023-10-02T22:00:26.539Z,22.20
2023-10-02T22:07:08.939Z,22.73
2023-10-02T22:13:51.390Z,22.95
2023-10-02T22:20:34.176Z,23.15
2023-10-02T22:27:16.570Z,24.73
2023-10-02T22:33:58.836Z,23.08
2023-10-02T22:40:41.306Z,22.45
2023-10-02T22:47:23.615Z,22.40
2023-10-02T22:54:06.268Z,22.67
2023-10-02T23:00:48.559Z,21.48
2023-10-02T23:07:30.920Z,22.35
2023-10-02T23:14:13.439Z,23.27
2023-10-02T23:20:59.249Z,23.23
2023-10-02T23:27:42.781Z,22.27
2023-10-02T23:34:25.105Z,23.13
2023-10-02T23:41:07.545Z,22.60
2023-10-02T23:48:13.352Z,22.83
2023-10-02T23:54:59.480Z,22.88
